Time;durP1;ratioP1;P1;durP2;ratioP2;P2;SDS_P1;SDS_P2;PMS_P1;PMS_P2;Temp;Humidity;BMP_temperature;BMP_pressure;BME280_temperature;BME280_humidity;BME280_pressure;Samples;Min_cycle;Max_cycle;Signal;HPM_P1;HPM_P2
2023/11/07 00:01:22;;;;;;;10.27;2.63;;;;;;;;;;5044913;28;20090;-60
2023/11/07 00:03:48;;;;;;;3.03;2.20;;;;;;;;;;5041111;28;20098;-60
2023/11/07 00:06:14;;;;;;;9.55;2.90;;;;;;;;;;5041152;28;20329;-60
2023/11/07 00:08:40;;;;;;;3.30;2.53;;;;;;;;;;5036938;28;20076;-60
2023/11/07 00:11:06;;;;;;;3.13;2.30;;;;;;;;;;5038803;28;20033;-59
2023/11/07 00:13:32;;;;;;;7.18;2.58;;;;;;;;;;5038802;28;20029;-59
2023/11/07 00:15:58;;;;;;;7.30;3.28;;;;;;;;;;5035923;28;20104;-59
2023/11/07 00:18:24;;;;;;;5.13;2.45;;;;;;;;;;5037862;28;20091;-60
2023/11/07 00:20:50;;;;;;;7.03;3.15;;;;;;;;;;5039081;28;20159;-60
2023/11/07 00:23:16;;;;;;;12.05;5.00;;;;;;;;;;5038838;28;20051;-60
2023/11/07 00:25:43;;;;;;;7.35;3.78;;;;;;;;;;5034587;28;20542;-59
2023/11/07 00:28:10;;;;;;;4.45;2.30;;;;;;;;;;5033657;28;20207;-60
2023/11/07 00:30:36;;;;;;;5.78;3.70;;;;;;;;;;5037671;28;20025;-59
2023/11/07 00:33:02;;;;;;;7.75;3.25;;;;;;;;;;5040442;28;20079;-60
2023/11/07 00:35:28;;;;;;;4.72;2.70;;;;;;;;;;5039872;28;20044;-60
2023/11/07 00:37:54;;;;;;;12.18;2.70;;;;;;;;;;5034542;28;20102;-60
2023/11/07 00:40:20;;;;;;;7.70;2.65;;;;;;;;;;5045105;28;20029;-60
2023/11/07 00:42:46;;;;;;;4.53;2.83;;;;;;;;;;5035726;28;20035;-60
2023/11/07 00:45:12;;;;;;;7.15;2.83;;;;;;;;;;5034772;28;20497;-64
2023/11/07 00:47:38;;;;;;;9.50;2.78;;;;;;;;;;5040214;28;20456;-60
2023/11/07 00:50:05;;;;;;;8.65;2.78;;;;;;;;;;5027635;28;20048;-59
2023/11/07 00:52:31;;;;;;;4.55;3.00;;;;;;;;;;5033207;28;20033;-60
2023/11/07 00:54:59;;;;;;;6.78;2.97;;;;;;;;;;5041953;28;20025;-60
2023/11/07 00:57:26;;;;;;;10.02;3.80;;;;;;;;;;5032937;28;20084;-59
2023/11/07 00:59:52;;;;;;;9.80;3.53;;;;;;;;;;5039946;28;20104;-60
2023/11/07 01:02:18;;;;;;;17.77;5.63;;;;;;;;;;5039304;28;20409;-60
2023/11/07 01:04:45;;;;;;;7.85;3.10;;;;;;;;;;5036045;28;20371;-60
2023/11/07 01:07:11;;;;;;;10.07;5.70;;;;;;;;;;5040265;28;20549;-60
2023/11/07 01:09:37;;;;;;;7.88;3.20;;;;;;;;;;5036608;28;20032;-60
2023/11/07 01:12:03;;;;;;;4.68;3.17;;;;;;;;;;5032756;28;20033;-60
2023/11/07 01:14:29;;;;;;;9.32;3.88;;;;;;;;;;5028549;28;20151;-60
2023/11/07 01:16:55;;;;;;;8.35;3.10;;;;;;;;;;5013612;28;20627;-60
2023/11/07 01:19:22;;;;;;;8.18;3.05;;;;;;;;;;5036194;28;20038;-59
2023/11/07 01:21:48;;;;;;;5.57;2.70;;;;;;;;;;5017514;28;20628;-60
2023/11/07 01:24:14;;;;;;;8.43;2.85;;;;;;;;;;5022300;28;20033;-59
2023/11/07 01:26:40;;;;;;;13.27;2.67;;;;;;;;;;5039631;28;20033;-60
2023/11/07 01:29:06;;;;;;;10.30;3.05;;;;;;;;;;5035362;28;20565;-60
2023/11/07 01:31:33;;;;;;;8.13;2.95;;;;;;;;;;5022070;28;20033;-60
2023/11/07 01:33:59;;;;;;;9.38;3.10;;;;;;;;;;5016618;28;20029;-59
2023/11/07 01:36:25;;;;;;;11.98;3.72;;;;;;;;;;5039419;28;20754;-62
2023/11/07 01:38:51;;;;;;;4.40;3.10;;;;;;;;;;5040098;28;20061;-60
2023/11/07 01:41:18;;;;;;;14.65;4.13;;;;;;;;;;5041538;28;20051;-60
2023/11/07 01:43:46;;;;;;;5.30;2.35;;;;;;;;;;5032376;28;20071;-61
2023/11/07 01:46:12;;;;;;;6.25;2.40;;;;;;;;;;5036377;28;20138;-60
2023/11/07 01:48:38;;;;;;;17.50;3.38;;;;;;;;;;5034186;28;20186;-60
2023/11/07 01:51:05;;;;;;;14.60;2.85;;;;;;;;;;5036945;28;20037;-59
2023/11/07 01:53:32;;;;;;;4.63;2.65;;;;;;;;;;5032944;28;20391;-59
2023/11/07 01:55:58;;;;;;;7.20;2.65;;;;;;;;;;5035795;28;20030;-59
2023/11/07 01:58:24;;;;;;;9.13;2.65;;;;;;;;;;5036090;28;20439;-59
2023/11/07 02:00:53;;;;;;;8.18;2.53;;;;;;;;;;5035025;28;20495;-60
2023/11/07 02:03:20;;;;;;;5.78;2.55;;;;;;;;;;5011927;28;20502;-60
2023/11/07 02:05:46;;;;;;;5.65;2.35;;;;;;;;;;5018335;28;20037;-60
2023/11/07 02:08:12;;;;;;;4.22;2.10;;;;;;;;;;5024371;28;20029;-61
2023/11/07 02:10:38;;;;;;;6.85;2.10;;;;;;;;;;5031904;28;20034;-60
2023/11/07 02:13:05;;;;;;;3.92;1.88;;;;;;;;;;5012047;28;20029;-60
2023/11/07 02:15:31;;;;;;;7.13;1.90;;;;;;;;;;5013219;28;20107;-60
2023/11/07 02:17:58;;;;;;;10.70;2.85;;;;;;;;;;5019585;28;20056;-60
2023/11/07 02:20:24;;;;;;;4.13;1.98;;;;;;;;;;5021090;28;20044;-59
2023/11/07 02:23:03;;;;;;;4.63;2.38;;;;;;;;;;5017332;28;20034;-59
2023/11/07 02:25:29;;;;;;;2.30;1.83;;;;;;;;;;5013100;28;20455;-60
2023/11/07 02:27:55;;;;;;;3.53;1.90;;;;;;;;;;5013918;28;20034;-60
2023/11/07 02:30:22;;;;;;;2.85;1.90;;;;;;;;;;5015045;28;20084;-59
2023/11/07 02:32:48;;;;;;;5.82;1.90;;;;;;;;;;5013392;28;20103;-59
2023/11/07 02:35:14;;;;;;;5.82;3.75;;;;;;;;;;5014194;28;20437;-59
2023/11/07 02:37:41;;;;;;;5.50;2.30;;;;;;;;;;5008257;28;20700;-61
2023/11/07 02:40:11;;;;;;;8.23;2.28;;;;;;;;;;5020539;28;20555;-61
2023/11/07 02:42:37;;;;;;;8.20;2.30;;;;;;;;;;5014187;28;20444;-60
2023/11/07 02:45:03;;;;;;;5.10;2.35;;;;;;;;;;5012084;28;20487;-60
2023/11/07 02:47:29;;;;;;;4.97;2.17;;;;;;;;;;5011857;28;20032;-60
2023/11/07 02:49:56;;;;;;;6.43;2.33;;;;;;;;;;5013485;28;20033;-64
2023/11/07 02:52:22;;;;;;;6.65;2.17;;;;;;;;;;5015167;28;20092;-61
2023/11/07 02:54:48;;;;;;;5.55;1.90;;;;;;;;;;5009810;28;20033;-62
2023/11/07 02:57:15;;;;;;;7.05;2.30;;;;;;;;;;5014001;28;20029;-59
2023/11/07 02:59:45;;;;;;;3.20;1.88;;;;;;;;;;5013167;28;20034;-61
2023/11/07 03:02:11;;;;;;;4.75;2.40;;;;;;;;;;5012577;28;20041;-60
2023/11/07 03:04:38;;;;;;;6.20;2.28;;;;;;;;;;5014751;28;20025;-61
2023/11/07 03:07:04;;;;;;;1.80;1.70;;;;;;;;;;5017653;28;20462;-59
2023/11/07 03:09:30;;;;;;;5.55;2.33;;;;;;;;;;5014311;28;20096;-60
2023/11/07 03:11:56;;;;;;;3.40;2.10;;;;;;;;;;5010533;28;20029;-61
2023/11/07 03:14:22;;;;;;;3.65;1.85;;;;;;;;;;5012564;28;20029;-60
2023/11/07 03:16:48;;;;;;;6.88;2.42;;;;;;;;;;5019184;28;20034;-62
2023/11/07 03:19:17;;;;;;;5.47;2.30;;;;;;;;;;5013052;28;20542;-60
2023/11/07 03:21:43;;;;;;;6.78;2.33;;;;;;;;;;5012788;28;20037;-59
2023/11/07 03:24:10;;;;;;;8.48;2.60;;;;;;;;;;5017316;28;20017;-60
2023/11/07 03:26:36;;;;;;;5.55;1.80;;;;;;;;;;5011227;28;20045;-60
2023/11/07 03:29:02;;;;;;;4.40;1.98;;;;;;;;;;5026389;28;20036;-61
2023/11/07 03:31:28;;;;;;;4.18;2.10;;;;;;;;;;5013920;28;20165;-61
2023/11/07 03:33:55;;;;;;;5.75;2.80;;;;;;;;;;5013012;28;20168;-61
2023/11/07 03:36:23;;;;;;;4.38;1.88;;;;;;;;;;5018704;28;20032;-61
2023/11/07 03:38:49;;;;;;;7.43;2.13;;;;;;;;;;5014819;28;20078;-61
2023/11/07 03:41:16;;;;;;;7.13;2.30;;;;;;;;;;5014620;28;20042;-62
2023/11/07 03:43:42;;;;;;;4.85;2.35;;;;;;;;;;5006887;28;20572;-60
2023/11/07 03:46:08;;;;;;;4.45;2.30;;;;;;;;;;5012233;28;20479;-60
2023/11/07 03:48:34;;;;;;;10.25;2.38;;;;;;;;;;5010999;28;20491;-60
2023/11/07 03:51:00;;;;;;;4.28;2.38;;;;;;;;;;5017490;28;20021;-60
2023/11/07 03:53:27;;;;;;;3.40;2.10;;;;;;;;;;5014866;28;20110;-60
2023/11/07 03:55:57;;;;;;;6.63;2.25;;;;;;;;;;5016848;28;20088;-60
2023/11/07 03:58:23;;;;;;;6.75;2.15;;;;;;;;;;5010973;28;20029;-59
2023/11/07 04:00:49;;;;;;;7.35;2.20;;;;;;;;;;5016504;28;20641;-60
2023/11/07 04:03:15;;;;;;;7.63;4.03;;;;;;;;;;5027094;28;20631;-60
2023/11/07 04:05:41;;;;;;;7.07;2.38;;;;;;;;;;5028328;28;20577;-60
2023/11/07 04:08:08;;;;;;;3.55;2.45;;;;;;;;;;5030644;28;20053;-59
2023/11/07 04:10:34;;;;;;;5.05;2.10;;;;;;;;;;5030473;28;20437;-59
2023/11/07 04:13:05;;;;;;;3.72;1.85;;;;;;;;;;5033678;28;20069;-60
2023/11/07 04:15:31;;;;;;;9.18;2.78;;;;;;;;;;5018157;28;20048;-60
2023/11/07 04:17:57;;;;;;;3.38;1.65;;;;;;;;;;5032996;28;20025;-59
2023/11/07 04:20:23;;;;;;;3.17;1.67;;;;;;;;;;5030731;28;20036;-60
2023/11/07 04:22:49;;;;;;;5.72;2.15;;;;;;;;;;5034086;28;20475;-60
2023/11/07 04:25:19;;;;;;;4.30;1.98;;;;;;;;;;5035511;28;21036;-60
2023/11/07 04:27:46;;;;;;;3.03;1.63;;;;;;;;;;5036182;28;20399;-60
2023/11/07 04:30:13;;;;;;;9.88;1.98;;;;;;;;;;5038089;28;20486;-61
2023/11/07 04:32:40;;;;;;;5.20;1.90;;;;;;;;;;5034041;28;20509;-60
2023/11/07 04:35:07;;;;;;;2.20;2.00;;;;;;;;;;5036561;28;20035;-61
2023/11/07 04:37:33;;;;;;;6.13;1.88;;;;;;;;;;5038888;28;20029;-60
2023/11/07 04:39:59;;;;;;;4.65;2.97;;;;;;;;;;5037630;28;20029;-60
2023/11/07 04:42:25;;;;;;;5.47;2.35;;;;;;;;;;5036750;28;20029;-60
2023/11/07 04:44:52;;;;;;;4.28;1.95;;;;;;;;;;5035547;28;20426;-60
2023/11/07 04:47:20;;;;;;;3.65;2.10;;;;;;;;;;5038256;28;20024;-60
2023/11/07 04:49:46;;;;;;;6.32;2.45;;;;;;;;;;5035159;28;20118;-60
2023/11/07 04:52:12;;;;;;;2.40;1.63;;;;;;;;;;5037095;28;20028;-60
2023/11/07 04:54:39;;;;;;;5.90;1.67;;;;;;;;;;5039158;28;20134;-60
2023/11/07 04:57:07;;;;;;;2.53;1.55;;;;;;;;;;5037778;28;20364;-60
2023/11/07 04:59:34;;;;;;;8.88;2.00;;;;;;;;;;5038215;28;20029;-60
2023/11/07 05:02:03;;;;;;;7.00;2.20;;;;;;;;;;5036157;28;20386;-60
2023/11/07 05:04:29;;;;;;;4.15;1.60;;;;;;;;;;5036830;28;20084;-61
2023/11/07 05:06:55;;;;;;;6.13;1.98;;;;;;;;;;5035237;28;20033;-60
2023/11/07 05:09:22;;;;;;;6.55;2.25;;;;;;;;;;5019924;28;20503;-60
2023/11/07 05:11:48;;;;;;;4.15;2.13;;;;;;;;;;5033571;28;20027;-60
2023/11/07 05:14:14;;;;;;;4.32;2.05;;;;;;;;;;5028939;28;20053;-61
2023/11/07 05:16:43;;;;;;;2.33;1.85;;;;;;;;;;5037792;28;20490;-63
2023/11/07 05:19:09;;;;;;;3.95;2.15;;;;;;;;;;5028515;28;20514;-60
2023/11/07 05:21:36;;;;;;;4.13;1.85;;;;;;;;;;5032317;28;20043;-60
2023/11/07 05:24:04;;;;;;;3.42;1.90;;;;;;;;;;5027686;28;20029;-60
2023/11/07 05:26:30;;;;;;;3.17;2.33;;;;;;;;;;5015333;28;20112;-60
2023/11/07 05:28:56;;;;;;;2.92;1.90;;;;;;;;;;5047334;28;20468;-60
2023/11/07 05:31:22;;;;;;;3.60;2.03;;;;;;;;;;5019720;28;20105;-59
2023/11/07 05:33:49;;;;;;;4.55;2.28;;;;;;;;;;5020254;28;20083;-59
2023/11/07 05:36:18;;;;;;;7.05;2.17;;;;;;;;;;5028473;28;20052;-61
2023/11/07 05:38:44;;;;;;;8.40;2.50;;;;;;;;;;5039294;28;20079;-59
2023/11/07 05:41:11;;;;;;;4.13;2.20;;;;;;;;;;5034950;28;20045;-60
2023/11/07 05:43:37;;;;;;;8.35;2.38;;;;;;;;;;5029087;28;20118;-60
2023/11/07 05:46:04;;;;;;;10.20;2.97;;;;;;;;;;5037099;28;20115;-60
2023/11/07 05:48:30;;;;;;;6.43;2.20;;;;;;;;;;5038127;28;20021;-60
2023/11/07 05:50:56;;;;;;;6.15;1.95;;;;;;;;;;5019505;28;20024;-59
2023/11/07 05:53:22;;;;;;;3.53;1.98;;;;;;;;;;5042263;28;20021;-62
2023/11/07 05:55:49;;;;;;;3.25;1.80;;;;;;;;;;5012473;28;20418;-60
2023/11/07 05:58:15;;;;;;;2.40;1.80;;;;;;;;;;5019329;28;20761;-60
2023/11/07 06:00:41;;;;;;;3.92;2.20;;;;;;;;;;5035281;28;20025;-61
2023/11/07 06:03:08;;;;;;;2.40;1.83;;;;;;;;;;5035032;28;20052;-60
2023/11/07 06:05:34;;;;;;;2.75;1.88;;;;;;;;;;5028702;28;20402;-60
2023/11/07 06:08:00;;;;;;;8.15;2.58;;;;;;;;;;5034070;28;20033;-60
2023/11/07 06:10:27;;;;;;;3.45;1.73;;;;;;;;;;5035194;28;20025;-60
2023/11/07 06:12:53;;;;;;;2.60;1.85;;;;;;;;;;5034341;28;20103;-61
2023/11/07 06:15:19;;;;;;;5.72;2.13;;;;;;;;;;5027268;28;20064;-60
2023/11/07 06:17:46;;;;;;;2.33;2.13;;;;;;;;;;5036688;28;20063;-60
2023/11/07 06:20:12;;;;;;;2.85;1.70;;;;;;;;;;5035012;28;20083;-61
2023/11/07 06:22:38;;;;;;;5.22;1.95;;;;;;;;;;5035429;28;20232;-61
2023/11/07 06:25:06;;;;;;;4.10;2.40;;;;;;;;;;5032713;28;20045;-61
2023/11/07 06:27:32;;;;;;;4.32;1.85;;;;;;;;;;5029249;28;20462;-63
2023/11/07 06:29:58;;;;;;;5.00;2.42;;;;;;;;;;5043893;28;20029;-63
2023/11/07 06:32:25;;;;;;;2.67;1.90;;;;;;;;;;5034455;28;20060;-61
2023/11/07 06:34:52;;;;;;;5.93;2.20;;;;;;;;;;5020703;28;20025;-62
2023/11/07 06:37:19;;;;;;;3.92;2.03;;;;;;;;;;5039876;28;20075;-59
2023/11/07 06:39:45;;;;;;;1.83;1.60;;;;;;;;;;5033982;28;20029;-60
2023/11/07 06:42:11;;;;;;;5.80;2.05;;;;;;;;;;5038397;28;20421;-60
2023/11/07 06:44:37;;;;;;;2.95;2.30;;;;;;;;;;5031040;28;20032;-60
2023/11/07 06:47:03;;;;;;;4.80;1.95;;;;;;;;;;5014593;28;20107;-60
2023/11/07 06:49:31;;;;;;;4.68;1.80;;;;;;;;;;5039500;28;20017;-60
2023/11/07 06:51:58;;;;;;;4.57;2.08;;;;;;;;;;5033767;28;20842;-60
2023/11/07 06:54:24;;;;;;;3.78;1.70;;;;;;;;;;5035435;28;20124;-62
2023/11/07 06:56:50;;;;;;;3.20;1.83;;;;;;;;;;5033099;28;20036;-61
2023/11/07 06:59:17;;;;;;;6.22;1.88;;;;;;;;;;5036122;28;20048;-60
2023/11/07 07:01:46;;;;;;;2.40;1.95;;;;;;;;;;5034084;28;20037;-59
2023/11/07 07:04:13;;;;;;;6.50;2.05;;;;;;;;;;5018956;28;20045;-60
2023/11/07 07:06:40;;;;;;;4.47;1.80;;;;;;;;;;5018131;28;20029;-62
2023/11/07 07:09:07;;;;;;;3.03;1.90;;;;;;;;;;5024927;28;20025;-60
2023/11/07 07:11:34;;;;;;;10.73;2.00;;;;;;;;;;5011538;28;20038;-62
2023/11/07 07:14:00;;;;;;;3.08;1.58;;;;;;;;;;5013319;28;20040;-60
2023/11/07 07:16:30;;;;;;;2.58;1.90;;;;;;;;;;5010337;28;20053;-60
2023/11/07 07:18:56;;;;;;;5.88;2.25;;;;;;;;;;5017512;28;20590;-60
2023/11/07 07:21:24;;;;;;;2.70;1.73;;;;;;;;;;5014030;28;20065;-60
2023/11/07 07:23:50;;;;;;;6.50;1.90;;;;;;;;;;5003208;28;20032;-61
2023/11/07 07:26:17;;;;;;;8.27;2.03;;;;;;;;;;5009539;28;20108;-60
2023/11/07 07:28:43;;;;;;;5.20;1.80;;;;;;;;;;5010746;28;20504;-62
2023/11/07 07:31:10;;;;;;;2.88;2.67;;;;;;;;;;5007623;28;20446;-60
2023/11/07 07:33:37;;;;;;;6.63;2.10;;;;;;;;;;4997455;28;20029;-64
2023/11/07 07:36:14;;;;;;;2.92;1.80;;;;;;;;;;5016854;28;20030;-67
2023/11/07 07:38:41;;;;;;;6.80;2.45;;;;;;;;;;5003284;28;20025;-60
2023/11/07 07:41:10;;;;;;;3.65;1.77;;;;;;;;;;5011780;28;20391;-60
2023/11/07 07:43:38;;;;;;;2.88;1.85;;;;;;;;;;5008816;28;20035;-60
2023/11/07 07:46:07;;;;;;;2.70;1.80;;;;;;;;;;5010884;28;20550;-60
2023/11/07 07:48:34;;;;;;;4.80;2.08;;;;;;;;;;5002394;28;20036;-60
2023/11/07 07:51:04;;;;;;;4.03;2.13;;;;;;;;;;5014815;28;20111;-58
2023/11/07 07:53:34;;;;;;;3.53;1.80;;;;;;;;;;5013491;28;20387;-60
2023/11/07 07:56:00;;;;;;;6.75;1.90;;;;;;;;;;5014250;28;20148;-60
2023/11/07 07:58:26;;;;;;;2.55;1.60;;;;;;;;;;5017463;28;20036;-60
2023/11/07 08:00:52;;;;;;;4.10;1.77;;;;;;;;;;5018989;28;20111;-59
2023/11/07 08:03:19;;;;;;;5.80;2.17;;;;;;;;;;5033046;28;20045;-59
2023/11/07 08:05:45;;;;;;;4.65;2.00;;;;;;;;;;5036973;28;20047;-62
2023/11/07 08:08:12;;;;;;;3.97;1.80;;;;;;;;;;5039266;28;20036;-60
2023/11/07 08:10:38;;;;;;;10.15;1.90;;;;;;;;;;5035084;28;20048;-60
2023/11/07 08:13:09;;;;;;;4.93;2.10;;;;;;;;;;5039438;28;20029;-60
2023/11/07 08:15:36;;;;;;;7.32;2.33;;;;;;;;;;5038745;28;20128;-59
2023/11/07 08:18:06;;;;;;;8.73;1.92;;;;;;;;;;5038042;28;20079;-59
2023/11/07 08:20:33;;;;;;;6.90;2.55;;;;;;;;;;5039504;28;20124;-61
2023/11/07 08:23:00;;;;;;;6.18;1.98;;;;;;;;;;5038435;28;20447;-60
2023/11/07 08:25:28;;;;;;;5.28;1.95;;;;;;;;;;5030904;28;20367;-59
2023/11/07 08:27:54;;;;;;;7.75;2.13;;;;;;;;;;5033133;28;20554;-60
2023/11/07 08:30:23;;;;;;;8.23;2.97;;;;;;;;;;5019682;28;20075;-60
2023/11/07 08:32:50;;;;;;;5.07;2.00;;;;;;;;;;5018853;28;20111;-60
2023/11/07 08:35:18;;;;;;;5.97;1.90;;;;;;;;;;5036560;28;20168;-60
2023/11/07 08:37:49;;;;;;;5.60;1.95;;;;;;;;;;5022125;28;20028;-60
2023/11/07 08:40:17;;;;;;;3.40;1.98;;;;;;;;;;5026290;28;20555;-60
2023/11/07 08:42:48;;;;;;;5.75;2.03;;;;;;;;;;5039460;28;20029;-59
2023/11/07 08:45:21;;;;;;;7.18;1.88;;;;;;;;;;5034935;28;20356;-60
2023/11/07 08:47:51;;;;;;;4.25;1.80;;;;;;;;;;5032162;28;20366;-60
2023/11/07 08:50:21;;;;;;;3.65;1.80;;;;;;;;;;5037940;28;20029;-60
2023/11/07 08:52:50;;;;;;;3.13;1.75;;;;;;;;;;5036817;28;20040;-61
2023/11/07 08:55:16;;;;;;;4.45;2.28;;;;;;;;;;5037804;28;20028;-61
2023/11/07 08:57:44;;;;;;;3.60;1.70;;;;;;;;;;5038677;28;20258;-60
2023/11/07 09:00:12;;;;;;;11.85;2.67;;;;;;;;;;5027781;28;20044;-60
2023/11/07 09:02:38;;;;;;;3.15;2.60;;;;;;;;;;5037788;28;20242;-61
2023/11/07 09:05:07;;;;;;;5.93;2.47;;;;;;;;;;5035163;28;20052;-60
2023/11/07 09:07:34;;;;;;;6.00;2.15;;;;;;;;;;5035481;28;20061;-61
2023/11/07 09:10:01;;;;;;;6.38;2.30;;;;;;;;;;5035369;28;20044;-60
2023/11/07 09:12:27;;;;;;;3.88;1.75;;;;;;;;;;5036291;28;20036;-60
2023/11/07 09:14:53;;;;;;;3.88;2.03;;;;;;;;;;5035325;28;20087;-60
2023/11/07 09:17:20;;;;;;;4.82;2.33;;;;;;;;;;5038009;28;20033;-60
2023/11/07 09:19:46;;;;;;;4.50;1.83;;;;;;;;;;5032991;28;20033;-61
2023/11/07 09:22:12;;;;;;;3.50;2.55;;;;;;;;;;5038130;28;20473;-60
2023/11/07 09:24:39;;;;;;;6.75;2.00;;;;;;;;;;5038832;28;20502;-60
2023/11/07 09:27:07;;;;;;;11.85;3.13;;;;;;;;;;5037796;28;20064;-60
2023/11/07 09:29:40;;;;;;;11.48;2.47;;;;;;;;;;5034489;28;20024;-60
2023/11/07 09:32:07;;;;;;;8.40;2.45;;;;;;;;;;5035862;28;20054;-60
2023/11/07 09:34:33;;;;;;;6.25;1.95;;;;;;;;;;5041716;28;20032;-60
2023/11/07 09:37:00;;;;;;;5.15;2.22;;;;;;;;;;5037192;28;20033;-61
2023/11/07 09:39:27;;;;;;;6.38;2.20;;;;;;;;;;5038523;28;20059;-61
2023/11/07 09:41:53;;;;;;;4.10;2.33;;;;;;;;;;5036657;28;20330;-63
2023/11/07 09:44:19;;;;;;;5.28;2.35;;;;;;;;;;5035389;28;20383;-60
2023/11/07 09:46:47;;;;;;;31.17;6.40;;;;;;;;;;5035465;28;20102;-60
2023/11/07 09:49:14;;;;;;;9.10;2.70;;;;;;;;;;5035788;28;20051;-62
2023/11/07 09:51:40;;;;;;;6.13;2.45;;;;;;;;;;5018286;28;20398;-61
2023/11/07 09:54:09;;;;;;;4.68;2.10;;;;;;;;;;5036368;28;20036;-61
2023/11/07 09:56:39;;;;;;;5.55;2.70;;;;;;;;;;5027937;28;20033;-61
2023/11/07 09:59:22;;;;;;;6.80;2.58;;;;;;;;;;5031417;28;20552;-61
2023/11/07 10:01:49;;;;;;;6.25;2.35;;;;;;;;;;5031753;28;20252;-62
2023/11/07 10:04:19;;;;;;;7.07;2.30;;;;;;;;;;5034819;28;20051;-60
2023/11/07 10:06:45;;;;;;;12.48;2.70;;;;;;;;;;5035541;28;20029;-61
2023/11/07 10:09:14;;;;;;;5.55;2.08;;;;;;;;;;5035206;28;20143;-60
2023/11/07 10:11:44;;;;;;;8.38;2.38;;;;;;;;;;5033587;28;21082;-60
2023/11/07 10:14:11;;;;;;;9.68;2.83;;;;;;;;;;5036444;28;20475;-61
2023/11/07 10:16:38;;;;;;;7.43;2.25;;;;;;;;;;5032036;28;20087;-61
2023/11/07 10:19:04;;;;;;;8.18;2.10;;;;;;;;;;5034752;28;20402;-62
2023/11/07 10:21:31;;;;;;;7.20;2.58;;;;;;;;;;5034737;28;20084;-61
2023/11/07 10:23:58;;;;;;;5.15;2.30;;;;;;;;;;5036719;28;20025;-60
2023/11/07 10:26:24;;;;;;;4.85;2.38;;;;;;;;;;5031477;28;20024;-60
2023/11/07 10:29:05;;;;;;;4.32;2.03;;;;;;;;;;5033533;28;20044;-61
2023/11/07 10:31:31;;;;;;;12.25;2.72;;;;;;;;;;5028989;28;20040;-61
2023/11/07 10:34:25;;;;;;;5.20;2.05;;;;;;;;;;5035209;28;20064;-61
2023/11/07 10:36:51;;;;;;;6.47;1.90;;;;;;;;;;5032672;28;20646;-61
2023/11/07 10:39:21;;;;;;;4.95;2.25;;;;;;;;;;5035502;28;20029;-62
2023/11/07 10:41:48;;;;;;;5.75;2.47;;;;;;;;;;5033776;28;20083;-61
2023/11/07 10:44:25;;;;;;;8.63;2.60;;;;;;;;;;5039450;28;20139;-60
2023/11/07 10:46:54;;;;;;;4.65;2.25;;;;;;;;;;5036705;28;20048;-60
2023/11/07 10:49:21;;;;;;;3.13;2.03;;;;;;;;;;5039300;28;20029;-61
2023/11/07 10:51:48;;;;;;;6.45;2.30;;;;;;;;;;5016964;28;20028;-62
2023/11/07 10:54:21;;;;;;;7.53;3.33;;;;;;;;;;5037287;28;20049;-60
2023/11/07 10:56:50;;;;;;;4.90;2.85;;;;;;;;;;5025159;28;20393;-62
2023/11/07 10:59:20;;;;;;;7.00;2.08;;;;;;;;;;5010575;28;20355;-61
2023/11/07 11:01:50;;;;;;;6.38;2.03;;;;;;;;;;5017201;28;20033;-62
2023/11/07 11:04:17;;;;;;;7.70;2.03;;;;;;;;;;5014821;28;20030;-62
2023/11/07 11:06:45;;;;;;;7.57;2.00;;;;;;;;;;4998275;28;20363;-61
2023/11/07 11:09:12;;;;;;;4.15;2.00;;;;;;;;;;5001161;28;20113;-61
2023/11/07 11:11:39;;;;;;;9.23;2.47;;;;;;;;;;5008127;28;20033;-60
2023/11/07 11:14:08;;;;;;;7.15;2.28;;;;;;;;;;5015131;28;20389;-61
2023/11/07 11:16:35;;;;;;;6.82;2.10;;;;;;;;;;5015668;28;20026;-61
2023/11/07 11:19:24;;;;;;;4.75;2.10;;;;;;;;;;5013788;28;20037;-61
2023/11/07 11:21:54;;;;;;;2.63;2.03;;;;;;;;;;5013052;28;20637;-61
2023/11/07 11:24:39;;;;;;;6.05;1.90;;;;;;;;;;5015186;28;20507;-61
2023/11/07 11:27:24;;;;;;;2.83;2.17;;;;;;;;;;5014734;28;20475;-61
2023/11/07 11:29:50;;;;;;;2.43;1.70;;;;;;;;;;5022300;28;20088;-61
2023/11/07 11:32:23;;;;;;;4.80;2.38;;;;;;;;;;5017355;28;20780;-61
2023/11/07 11:34:49;;;;;;;6.28;2.25;;;;;;;;;;5014564;28;20033;-62
2023/11/07 11:37:16;;;;;;;4.60;2.25;;;;;;;;;;5010216;28;20416;-62
2023/11/07 11:39:45;;;;;;;15.95;3.30;;;;;;;;;;4996288;28;20699;-61
2023/11/07 11:42:11;;;;;;;6.30;2.15;;;;;;;;;;5002829;28;20077;-61
2023/11/07 11:44:41;;;;;;;3.67;2.85;;;;;;;;;;5017583;28;20588;-61
2023/11/07 11:47:10;;;;;;;7.05;2.47;;;;;;;;;;5016089;28;20112;-60
2023/11/07 11:49:42;;;;;;;6.47;2.30;;;;;;;;;;5011359;28;20033;-60
2023/11/07 11:52:27;;;;;;;7.70;2.22;;;;;;;;;;5013054;28;20037;-61
2023/11/07 11:54:54;;;;;;;3.08;1.83;;;;;;;;;;5013942;28;20541;-60
2023/11/07 11:57:21;;;;;;;10.05;2.55;;;;;;;;;;4995072;28;20034;-60
2023/11/07 11:59:50;;;;;;;5.07;2.20;;;;;;;;;;5015657;28;20041;-60
2023/11/07 12:02:39;;;;;;;6.97;2.67;;;;;;;;;;5010235;28;20049;-61
2023/11/07 12:05:18;;;;;;;3.08;1.90;;;;;;;;;;5033717;28;20401;-61
2023/11/07 12:07:48;;;;;;;6.85;2.42;;;;;;;;;;5034258;28;20025;-61
2023/11/07 12:10:16;;;;;;;4.53;2.20;;;;;;;;;;5031583;28;20034;-61
2023/11/07 12:12:44;;;;;;;5.53;2.15;;;;;;;;;;5017141;28;20025;-61
2023/11/07 12:15:13;;;;;;;4.18;1.80;;;;;;;;;;5034834;28;20462;-61
2023/11/07 12:17:46;;;;;;;4.97;2.53;;;;;;;;;;5018300;28;20056;-62
2023/11/07 12:20:14;;;;;;;4.57;2.08;;;;;;;;;;5034119;28;20186;-61
2023/11/07 12:22:44;;;;;;;4.97;2.10;;;;;;;;;;5015342;28;20494;-61
2023/11/07 12:25:20;;;;;;;4.60;1.88;;;;;;;;;;5033035;28;20379;-60
2023/11/07 12:28:05;;;;;;;5.18;2.65;;;;;;;;;;5033142;28;20136;-60
2023/11/07 12:30:32;;;;;;;3.20;2.20;;;;;;;;;;5031478;28;20836;-60
2023/11/07 12:32:59;;;;;;;6.38;2.10;;;;;;;;;;5017198;28;20110;-60
2023/11/07 12:35:35;;;;;;;6.00;1.95;;;;;;;;;;5035299;28;20994;-62
2023/11/07 12:38:08;;;;;;;5.88;2.78;;;;;;;;;;5034940;28;20550;-61
2023/11/07 12:40:36;;;;;;;4.40;2.05;;;;;;;;;;5033626;28;20053;-60
2023/11/07 12:43:06;;;;;;;5.18;2.20;;;;;;;;;;5036448;28;20071;-60
2023/11/07 12:45:36;;;;;;;7.28;2.60;;;;;;;;;;5038255;28;20029;-61
2023/11/07 12:48:05;;;;;;;7.80;3.75;;;;;;;;;;5037579;28;20455;-60
2023/11/07 12:50:35;;;;;;;5.78;2.50;;;;;;;;;;4998307;28;20029;-59
2023/11/07 12:53:03;;;;;;;5.13;2.80;;;;;;;;;;5041268;28;20045;-59
2023/11/07 12:55:30;;;;;;;3.70;2.20;;;;;;;;;;5036461;28;20107;-59
2023/11/07 12:57:57;;;;;;;5.50;2.05;;;;;;;;;;5026530;28;20021;-60
2023/11/07 13:00:27;;;;;;;10.23;3.00;;;;;;;;;;5032862;28;20091;-62
2023/11/07 13:02:56;;;;;;;5.90;2.40;;;;;;;;;;5036995;28;20630;-59
2023/11/07 13:05:23;;;;;;;6.70;2.15;;;;;;;;;;5031919;28;20255;-59
2023/11/07 13:07:49;;;;;;;5.97;2.83;;;;;;;;;;5038811;28;20090;-58
2023/11/07 13:10:16;;;;;;;4.97;2.30;;;;;;;;;;5035950;28;20175;-59
2023/11/07 13:12:42;;;;;;;5.63;2.70;;;;;;;;;;5019303;28;20033;-60
2023/11/07 13:15:09;;;;;;;5.60;2.55;;;;;;;;;;5034760;28;20602;-60
2023/11/07 13:17:39;;;;;;;14.23;3.60;;;;;;;;;;5023627;28;20034;-59
2023/11/07 13:20:08;;;;;;;4.85;3.45;;;;;;;;;;5040933;28;20055;-61
2023/11/07 13:22:35;;;;;;;5.82;2.67;;;;;;;;;;5037028;28;20037;-60
2023/11/07 13:25:06;;;;;;;6.72;2.83;;;;;;;;;;5021757;28;20087;-61
2023/11/07 13:27:40;;;;;;;4.13;2.17;;;;;;;;;;5018675;28;20060;-60
2023/11/07 13:30:18;;;;;;;8.15;2.42;;;;;;;;;;5037089;28;20033;-60
2023/11/07 13:32:44;;;;;;;5.70;2.53;;;;;;;;;;5016492;28;20396;-61
2023/11/07 13:35:11;;;;;;;2.80;2.17;;;;;;;;;;5036086;28;20820;-61
2023/11/07 13:37:37;;;;;;;3.80;2.50;;;;;;;;;;5029320;28;20086;-62
2023/11/07 13:40:09;;;;;;;3.95;2.17;;;;;;;;;;5028293;28;20033;-61
2023/11/07 13:42:35;;;;;;;5.28;2.33;;;;;;;;;;5031480;28;20029;-60
2023/11/07 13:45:01;;;;;;;6.03;2.33;;;;;;;;;;5033196;28;20478;-60
2023/11/07 13:47:27;;;;;;;3.22;1.85;;;;;;;;;;5015638;28;20025;-60
2023/11/07 13:49:53;;;;;;;5.10;2.25;;;;;;;;;;5033902;28;20059;-61
2023/11/07 13:52:21;;;;;;;4.72;2.58;;;;;;;;;;5030297;28;20036;-61
2023/11/07 13:54:48;;;;;;;7.68;2.90;;;;;;;;;;5035762;28;20055;-59
2023/11/07 13:57:15;;;;;;;5.07;2.55;;;;;;;;;;5015030;28;20171;-60
2023/11/07 13:59:41;;;;;;;6.47;3.45;;;;;;;;;;5044407;28;20052;-60
2023/11/07 14:02:08;;;;;;;5.68;2.63;;;;;;;;;;5033857;28;20575;-60
2023/11/07 14:04:34;;;;;;;7.07;3.58;;;;;;;;;;5035114;28;20081;-60
2023/11/07 14:07:01;;;;;;;11.88;7.45;;;;;;;;;;5031628;28;20025;-58
2023/11/07 14:09:27;;;;;;;4.38;2.50;;;;;;;;;;5035198;28;20499;-59
2023/11/07 14:11:53;;;;;;;6.07;2.85;;;;;;;;;;5035273;28;20061;-60
2023/11/07 14:14:19;;;;;;;8.50;6.78;;;;;;;;;;5035175;28;20037;-60
2023/11/07 14:16:46;;;;;;;7.85;4.57;;;;;;;;;;5031758;28;20039;-60
2023/11/07 14:19:12;;;;;;;5.57;4.97;;;;;;;;;;5038493;28;20047;-60
2023/11/07 14:21:40;;;;;;;4.22;2.65;;;;;;;;;;5034547;28;20540;-60
2023/11/07 14:24:07;;;;;;;7.13;2.70;;;;;;;;;;5038167;28;20033;-61
2023/11/07 14:26:36;;;;;;;5.40;2.78;;;;;;;;;;5018146;28;20032;-61
2023/11/07 14:29:06;;;;;;;3.95;2.50;;;;;;;;;;5020780;28;20035;-61
2023/11/07 14:31:32;;;;;;;7.57;2.47;;;;;;;;;;5038466;28;20029;-61
2023/11/07 14:33:58;;;;;;;5.90;3.92;;;;;;;;;;5018703;28;20025;-60
2023/11/07 14:36:25;;;;;;;3.58;2.63;;;;;;;;;;5037015;28;20028;-61
2023/11/07 14:38:52;;;;;;;7.15;3.55;;;;;;;;;;5035544;28;20024;-61
2023/11/07 14:41:18;;;;;;;5.60;2.65;;;;;;;;;;5038235;28;20055;-60
2023/11/07 14:43:45;;;;;;;4.28;2.40;;;;;;;;;;5037363;28;20036;-61
2023/11/07 14:46:11;;;;;;;4.97;3.38;;;;;;;;;;5037063;28;20439;-61